createdAt,value
2022-09-11T00:01:44.684Z,97.40
2022-09-11T00:04:12.883Z,97.40
2022-09-11T00:06:41.034Z,97.40
2022-09-11T00:09:09.423Z,97.40
2022-09-11T00:11:42.293Z,97.40
2022-09-11T00:14:15.055Z,97.40
2022-09-11T00:16:46.390Z,97.40
2022-09-11T00:19:17.821Z,97.40
2022-09-11T00:21:46.365Z,97.40
2022-09-11T00:24:14.509Z,97.40
2022-09-11T00:26:43.308Z,97.40
2022-09-11T00:29:12.910Z,97.40
2022-09-11T00:31:41.612Z,97.40
2022-09-11T00:34:09.967Z,97.40
2022-09-11T00:36:41.252Z,97.40
2022-09-11T00:39:10.544Z,97.40
2022-09-11T00:41:41.506Z,97.40
2022-09-11T00:45:01.258Z,97.40
2022-09-11T00:47:31.978Z,97.40
2022-09-11T00:50:12.070Z,97.40
2022-09-11T00:52:45.088Z,97.40
2022-09-11T00:55:15.850Z,97.40
2022-09-11T00:57:52.264Z,97.40
2022-09-11T01:00:22.702Z,97.40
2022-09-11T01:02:54.459Z,97.40
2022-09-11T01:05:25.127Z,97.40
2022-09-11T01:07:55.864Z,97.40
2022-09-11T01:10:35.206Z,97.40
2022-09-11T01:13:11.414Z,97.40
2022-09-11T01:15:48.265Z,97.40
2022-09-11T01:18:23.975Z,97.40
2022-09-11T01:21:09.481Z,97.40
2022-09-11T01:24:11.631Z,97.40
2022-09-11T01:26:55.498Z,97.40
2022-09-11T01:29:30.488Z,97.40
2022-09-11T01:32:06.705Z,97.40
2022-09-11T01:34:42.304Z,97.40
2022-09-11T01:37:19.060Z,97.40
2022-09-11T01:39:55.704Z,97.40
2022-09-11T01:42:25.937Z,97.40
2022-09-11T01:44:58.492Z,97.40
2022-09-11T01:47:29.435Z,97.40
2022-09-11T01:50:03.119Z,97.40
2022-09-11T01:52:37.936Z,97.40
2022-09-11T01:55:13.092Z,97.40
2022-09-11T01:57:47.627Z,97.40
2022-09-11T02:00:18.929Z,97.40
2022-09-11T02:02:59.653Z,97.40
2022-09-11T02:05:34.579Z,97.40
2022-09-11T02:08:12.780Z,97.40
2022-09-11T02:10:48.253Z,97.40
2022-09-11T02:13:26.065Z,97.40
2022-09-11T02:16:03.763Z,97.40
2022-09-11T02:18:42.808Z,97.40
2022-09-11T02:21:11.307Z,97.40
2022-09-11T02:23:40.684Z,97.40
2022-09-11T02:26:10.857Z,97.40
2022-09-11T02:28:39.026Z,97.40
2022-09-11T02:31:08.703Z,97.40
2022-09-11T02:33:38.484Z,97.40
2022-09-11T02:36:24.826Z,97.40
2022-09-11T02:39:10.360Z,97.40
2022-09-11T02:41:51.787Z,97.40
2022-09-11T02:44:31.665Z,97.40
2022-09-11T02:47:12.837Z,97.40
2022-09-11T02:49:55.819Z,97.40
2022-09-11T02:52:41.943Z,97.40
2022-09-11T02:55:20.152Z,97.40
2022-09-11T02:57:54.091Z,97.40
2022-09-11T03:00:22.614Z,97.40
2022-09-11T03:02:53.571Z,97.40
2022-09-11T03:05:23.230Z,97.40
2022-09-11T03:07:51.788Z,97.40
2022-09-11T03:10:19.936Z,97.40
2022-09-11T03:12:48.028Z,97.40
2022-09-11T03:15:17.315Z,97.40
2022-09-11T03:17:45.499Z,97.40
2022-09-11T03:20:19.187Z,97.40
2022-09-11T03:22:48.377Z,97.40
2022-09-11T03:25:17.745Z,97.40
2022-09-11T03:27:46.112Z,97.40
2022-09-11T03:30:15.294Z,97.40
2022-09-11T03:32:43.669Z,97.40
2022-09-11T03:35:13.983Z,97.40
2022-09-11T03:37:43.462Z,97.40
2022-09-11T03:40:12.342Z,97.40
2022-09-11T03:42:40.621Z,97.40
2022-09-11T03:45:10.115Z,97.40
2022-09-11T03:47:38.621Z,97.40
2022-09-11T03:50:08.111Z,97.40
2022-09-11T03:52:37.010Z,97.40
2022-09-11T03:55:08.279Z,97.40
2022-09-11T03:57:37.347Z,97.40
2022-09-11T04:00:08.810Z,97.40
2022-09-11T04:02:49.621Z,97.40
2022-09-11T04:05:30.395Z,97.40
2022-09-11T04:07:59.683Z,97.40
2022-09-11T04:10:29.145Z,97.40
2022-09-11T04:12:58.879Z,97.40
2022-09-11T04:15:27.007Z,97.40
2022-09-11T04:17:55.078Z,97.40
2022-09-11T04:20:24.428Z,97.40
2022-09-11T04:22:52.550Z,97.40
2022-09-11T04:25:22.080Z,97.40
2022-09-11T04:27:51.697Z,97.40
2022-09-11T04:30:19.799Z,97.40
2022-09-11T04:32:50.304Z,97.40
2022-09-11T04:35:19.059Z,97.40
2022-09-11T04:37:53.520Z,97.40
2022-09-11T04:40:22.638Z,97.40
2022-09-11T04:42:52.050Z,97.40
2022-09-11T04:45:21.261Z,97.40
2022-09-11T04:47:52.935Z,97.40
2022-09-11T04:50:21.947Z,97.40
2022-09-11T04:53:09.213Z,97.40
2022-09-11T04:55:37.666Z,97.40
2022-09-11T04:58:07.610Z,97.40
2022-09-11T05:00:35.769Z,97.40
2022-09-11T05:03:03.867Z,97.40
2022-09-11T05:05:31.946Z,97.40
2022-09-11T05:07:59.966Z,97.40
2022-09-11T05:10:28.808Z,97.40
2022-09-11T05:12:56.848Z,97.40
2022-09-11T05:15:27.877Z,97.40
2022-09-11T05:17:56.074Z,97.40
2022-09-11T05:20:24.370Z,97.40
2022-09-11T05:22:53.574Z,97.40
2022-09-11T05:25:21.808Z,97.40
2022-09-11T05:27:50.444Z,97.40
2022-09-11T05:30:19.006Z,97.40
2022-09-11T05:32:48.607Z,97.40
2022-09-11T05:35:17.628Z,97.40
2022-09-11T05:37:46.407Z,97.40
2022-09-11T05:40:14.745Z,97.40
2022-09-11T05:42:43.030Z,97.40
2022-09-11T05:45:12.335Z,97.40
2022-09-11T05:47:40.507Z,97.40
2022-09-11T05:50:10.980Z,97.40
2022-09-11T05:52:39.162Z,97.40
2022-09-11T05:55:08.326Z,97.40
2022-09-11T05:57:36.784Z,97.40
2022-09-11T06:00:06.719Z,97.40
2022-09-11T06:02:38.348Z,97.40
2022-09-11T06:05:07.048Z,97.40
2022-09-11T06:07:36.615Z,97.40
2022-09-11T06:10:05.379Z,97.40
2022-09-11T06:12:35.035Z,97.40
2022-09-11T06:15:03.406Z,97.40
2022-09-11T06:17:32.453Z,97.40
2022-09-11T06:20:01.563Z,97.40
2022-09-11T06:22:34.046Z,97.40
2022-09-11T06:25:03.857Z,97.40
2022-09-11T06:27:32.180Z,97.40
2022-09-11T06:30:01.517Z,97.40
2022-09-11T06:32:34.279Z,97.40
2022-09-11T06:35:02.431Z,97.40
2022-09-11T06:37:30.941Z,97.40
2022-09-11T06:39:59.349Z,97.40
2022-09-11T06:42:31.353Z,97.40
2022-09-11T06:45:02.703Z,97.40
2022-09-11T06:47:32.402Z,97.40
2022-09-11T06:50:01.194Z,97.40
2022-09-11T06:52:35.732Z,97.40
2022-09-11T06:55:14.456Z,97.40
2022-09-11T06:57:50.183Z,97.40
2022-09-11T07:00:23.699Z,97.40
2022-09-11T07:02:52.958Z,97.40
2022-09-11T07:05:21.965Z,97.40
2022-09-11T07:07:53.335Z,97.40
2022-09-11T07:10:21.430Z,97.40
2022-09-11T07:12:56.342Z,97.40
2022-09-11T07:15:24.465Z,97.40
2022-09-11T07:17:52.591Z,97.40
2022-09-11T07:20:22.136Z,97.40
2022-09-11T07:22:50.362Z,97.40
2022-09-11T07:25:21.701Z,97.40
2022-09-11T07:27:51.105Z,97.40
2022-09-11T07:30:22.309Z,97.40
2022-09-11T07:32:54.364Z,97.40
2022-09-11T07:35:22.688Z,97.40
2022-09-11T07:37:53.881Z,97.40
2022-09-11T07:40:26.662Z,97.40
2022-09-11T07:42:55.631Z,97.40
2022-09-11T07:45:28.080Z,97.40
2022-09-11T07:47:56.310Z,97.40
2022-09-11T07:50:24.723Z,97.40
2022-09-11T07:52:53.328Z,97.40
2022-09-11T07:55:22.606Z,97.40
2022-09-11T07:57:54.061Z,97.40
2022-09-11T08:00:25.502Z,97.40
2022-09-11T08:03:05.719Z,97.40
2022-09-11T08:05:37.111Z,97.40
2022-09-11T08:08:06.347Z,97.40
2022-09-11T08:10:40.938Z,97.40
2022-09-11T08:13:09.732Z,97.40
2022-09-11T08:15:47.120Z,97.40
2022-09-11T08:18:15.910Z,97.40
2022-09-11T08:20:44.756Z,97.40
2022-09-11T08:23:14.635Z,97.40
2022-09-11T08:25:45.139Z,97.40
2022-09-11T08:28:13.464Z,97.40
2022-09-11T08:30:42.954Z,97.40
2022-09-11T08:33:13.472Z,97.40
2022-09-11T08:35:42.611Z,97.40
2022-09-11T08:38:10.703Z,97.40
2022-09-11T08:40:39.871Z,97.40
2022-09-11T08:43:21.369Z,97.40
2022-09-11T08:45:55.678Z,97.40
2022-09-11T08:48:34.998Z,97.40
2022-09-11T08:51:03.418Z,97.40
2022-09-11T08:53:33.910Z,97.40
2022-09-11T08:56:07.894Z,96.30
2022-09-11T08:58:50.940Z,93.90
2022-09-11T09:01:30.311Z,93.10
2022-09-11T09:04:15.436Z,92.30
2022-09-11T09:07:00.934Z,92.20
2022-09-11T09:09:43.824Z,88.10
2022-09-11T09:12:21.856Z,88.80
2022-09-11T09:15:16.978Z,91.00
2022-09-11T09:17:52.287Z,93.00
2022-09-11T09:20:24.033Z,94.00
2022-09-11T09:22:58.786Z,93.80
2022-09-11T09:25:30.028Z,94.20
2022-09-11T09:28:07.687Z,91.90
2022-09-11T09:30:51.442Z,91.20
2022-09-11T09:33:34.602Z,86.80
2022-09-11T09:36:17.627Z,82.80
2022-09-11T09:38:46.977Z,83.40
2022-09-11T09:41:49.498Z,87.30
2022-09-11T09:44:35.995Z,89.90
2022-09-11T09:47:04.436Z,90.70
2022-09-11T09:49:37.407Z,93.30
2022-09-11T09:52:19.569Z,94.00
2022-09-11T09:54:57.110Z,93.70
2022-09-11T09:57:31.854Z,94.40
2022-09-11T10:00:06.881Z,95.10
2022-09-11T10:02:49.104Z,94.60
2022-09-11T10:05:25.568Z,95.10
2022-09-11T10:07:57.074Z,95.20
2022-09-11T10:10:31.396Z,95.70
2022-09-11T10:13:18.505Z,95.90
2022-09-11T10:15:50.415Z,95.80
2022-09-11T10:18:36.041Z,95.60
2022-09-11T10:21:33.476Z,95.00
2022-09-11T10:24:04.644Z,92.20
2022-09-11T10:26:35.606Z,88.10
2022-09-11T10:29:09.855Z,88.20
2022-09-11T10:31:41.993Z,88.80
2022-09-11T10:34:17.005Z,86.00
2022-09-11T10:36:55.165Z,81.90
2022-09-11T10:39:26.079Z,84.00
2022-09-11T10:41:58.916Z,82.70
2022-09-11T10:44:28.427Z,84.30
2022-09-11T10:47:07.209Z,83.20
2022-09-11T10:49:36.117Z,82.30
2022-09-11T10:52:22.084Z,83.40
2022-09-11T10:55:01.905Z,84.30
2022-09-11T10:57:34.177Z,86.90
2022-09-11T11:00:15.437Z,89.40
2022-09-11T11:02:47.284Z,89.90
2022-09-11T11:05:22.464Z,90.10
2022-09-11T11:08:23.584Z,90.10
2022-09-11T11:11:14.045Z,90.20
2022-09-11T11:14:08.305Z,82.70
2022-09-11T11:16:50.847Z,76.30
2022-09-11T11:19:53.793Z,70.40
2022-09-11T11:22:48.143Z,60.70
2022-09-11T11:25:24.222Z,56.70
2022-09-11T11:28:35.479Z,56.60
2022-09-11T11:31:22.746Z,53.40
2022-09-11T11:34:25.459Z,51.30
2022-09-11T11:37:01.482Z,51.10
2022-09-11T11:39:33.937Z,47.90
2022-09-11T11:42:12.170Z,47.60
2022-09-11T11:44:47.320Z,46.80
2022-09-11T11:47:18.001Z,48.50
2022-09-11T11:49:56.866Z,47.80
2022-09-11T11:52:44.473Z,48.40
2022-09-11T11:55:20.694Z,45.50
2022-09-11T11:58:01.191Z,47.90
2022-09-11T12:00:33.220Z,44.90
2022-09-11T12:03:11.019Z,46.70
2022-09-11T12:05:40.286Z,43.80
2022-09-11T12:08:13.835Z,40.00
2022-09-11T12:10:47.013Z,43.20
2022-09-11T12:13:19.730Z,40.80
2022-09-11T12:16:11.205Z,39.10
2022-09-11T12:18:42.146Z,36.80
2022-09-11T12:21:49.321Z,38.90
2022-09-11T12:24:24.495Z,40.60
2022-09-11T12:27:44.987Z,37.10
2022-09-11T12:30:24.028Z,36.20
2022-09-11T12:32:54.001Z,37.10
2022-09-11T12:35:32.738Z,36.30
2022-09-11T12:38:18.195Z,36.00
2022-09-11T12:40:54.250Z,36.80
2022-09-11T12:43:46.627Z,32.70
2022-09-11T12:47:07.876Z,32.50
2022-09-11T12:49:37.456Z,32.80
2022-09-11T12:52:05.832Z,31.30
2022-09-11T12:54:41.087Z,31.90
2022-09-11T12:57:19.118Z,34.20
2022-09-11T12:59:54.506Z,36.30
2022-09-11T13:02:29.909Z,40.60
2022-09-11T13:04:58.924Z,42.60
2022-09-11T13:07:33.396Z,45.90
2022-09-11T13:10:08.522Z,49.10
2022-09-11T13:12:52.759Z,52.20
2022-09-11T13:15:43.055Z,56.60
2022-09-11T13:18:32.878Z,60.10
2022-09-11T13:21:04.654Z,63.30
2022-09-11T13:23:33.047Z,66.80
2022-09-11T13:26:04.647Z,68.50
2022-09-11T13:28:36.927Z,69.40
2022-09-11T13:31:05.167Z,70.90
2022-09-11T13:33:35.015Z,69.40
2022-09-11T13:36:06.805Z,67.00
2022-09-11T13:38:37.392Z,64.60
2022-09-11T13:41:08.764Z,64.00
2022-09-11T13:43:39.893Z,64.40
2022-09-11T13:46:26.623Z,64.80
2022-09-11T13:49:01.168Z,62.20
2022-09-11T13:51:31.172Z,61.00
2022-09-11T13:54:09.009Z,56.40
2022-09-11T13:56:46.982Z,53.40
2022-09-11T13:59:39.811Z,53.70
2022-09-11T14:02:25.581Z,51.60
2022-09-11T14:05:11.105Z,50.80
2022-09-11T14:07:48.161Z,47.20
2022-09-11T14:10:24.320Z,46.40
2022-09-11T14:13:02.991Z,45.50
2022-09-11T14:15:40.370Z,43.30
2022-09-11T14:18:17.097Z,45.90
2022-09-11T14:20:47.607Z,46.20
2022-09-11T14:23:21.579Z,45.60
2022-09-11T14:26:21.731Z,44.60
2022-09-11T14:29:05.074Z,45.80
2022-09-11T14:31:37.724Z,45.60
2022-09-11T14:34:18.166Z,47.00
2022-09-11T14:36:52.897Z,49.60
2022-09-11T14:39:35.204Z,49.70
2022-09-11T14:42:05.991Z,50.70
2022-09-11T14:44:35.510Z,50.30
2022-09-11T14:47:03.590Z,47.80
2022-09-11T14:49:31.789Z,47.60
2022-09-11T14:52:02.404Z,47.90
2022-09-11T14:54:32.040Z,48.40
2022-09-11T14:57:00.621Z,48.40
2022-09-11T14:59:29.921Z,49.60
2022-09-11T15:01:59.500Z,51.40
2022-09-11T15:04:29.435Z,52.60
2022-09-11T15:06:59.764Z,54.60
2022-09-11T15:09:29.235Z,54.60
2022-09-11T15:11:57.322Z,54.50
2022-09-11T15:14:51.884Z,53.50
2022-09-11T15:17:17.371Z,55.50
2022-09-11T15:19:47.103Z,55.10
2022-09-11T15:22:15.362Z,56.90
2022-09-11T15:24:44.775Z,56.90
2022-09-11T15:27:12.913Z,55.80
2022-09-11T15:29:42.461Z,56.90
2022-09-11T15:32:11.350Z,55.80
2022-09-11T15:34:42.408Z,56.70
2022-09-11T15:37:11.638Z,56.60
2022-09-11T15:39:39.873Z,56.00
2022-09-11T15:42:09.943Z,58.00
2022-09-11T15:44:38.560Z,57.80
2022-09-11T15:47:07.032Z,60.70
2022-09-11T15:49:40.846Z,63.10
2022-09-11T15:52:09.437Z,63.10
2022-09-11T15:54:37.772Z,64.60
2022-09-11T15:57:05.955Z,66.10
2022-09-11T15:59:37.801Z,67.20
2022-09-11T16:02:05.962Z,68.90
2022-09-11T16:04:34.742Z,69.80
2022-09-11T16:07:03.214Z,70.90
2022-09-11T16:09:33.372Z,72.00
2022-09-11T16:12:02.147Z,73.50
2022-09-11T16:14:32.797Z,74.60
2022-09-11T16:17:03.404Z,76.30
2022-09-11T16:19:32.386Z,76.90
2022-09-11T16:22:03.980Z,76.30
2022-09-11T16:24:37.266Z,78.00
2022-09-11T16:27:08.568Z,80.20
2022-09-11T16:30:15.963Z,81.90
2022-09-11T16:32:29.777Z,83.20
2022-09-11T16:34:59.345Z,82.30
2022-09-11T16:37:28.126Z,83.80
2022-09-11T16:39:56.317Z,85.30
2022-09-11T16:42:24.499Z,86.00
2022-09-11T16:44:53.445Z,87.30
2022-09-11T16:47:21.616Z,87.50
2022-09-11T16:50:06.568Z,88.10
2022-09-11T16:52:35.857Z,88.60
2022-09-11T16:55:04.580Z,89.00
2022-09-11T16:57:33.251Z,89.40
2022-09-11T17:00:01.975Z,89.40
2022-09-11T17:02:30.112Z,89.40
2022-09-11T17:04:59.543Z,90.20
2022-09-11T17:07:28.081Z,90.60
2022-09-11T17:09:56.139Z,90.70
2022-09-11T17:12:24.596Z,91.40
2022-09-11T17:14:52.667Z,91.50
2022-09-11T17:17:20.801Z,91.70
2022-09-11T17:19:51.811Z,92.00
2022-09-11T17:22:21.384Z,92.50
2022-09-11T17:24:49.440Z,94.50
2022-09-11T17:27:17.553Z,94.30
2022-09-11T17:29:47.225Z,94.80
2022-09-11T17:32:29.203Z,94.90
2022-09-11T17:34:58.295Z,94.90
2022-09-11T17:37:28.549Z,95.30
2022-09-11T17:39:57.797Z,95.50
2022-09-11T17:42:27.536Z,95.50
2022-09-11T17:44:56.259Z,95.70
2022-09-11T17:47:24.470Z,96.30
2022-09-11T17:49:52.701Z,97.40
2022-09-11T17:52:20.877Z,97.40
2022-09-11T17:54:50.510Z,97.40
2022-09-11T17:57:18.636Z,97.40
2022-09-11T17:59:49.951Z,97.40
2022-09-11T18:02:19.592Z,97.40
2022-09-11T18:04:48.869Z,97.40
2022-09-11T18:07:17.454Z,97.40
2022-09-11T18:09:45.698Z,97.40
2022-09-11T18:12:15.552Z,97.40
2022-09-11T18:14:43.901Z,97.40
2022-09-11T18:17:12.180Z,97.40
2022-09-11T18:19:40.261Z,97.40
2022-09-11T18:22:09.802Z,97.40
2022-09-11T18:24:39.862Z,97.40
2022-09-11T18:27:09.791Z,97.40
2022-09-11T18:29:40.592Z,97.40
2022-09-11T18:32:10.092Z,97.40
2022-09-11T18:34:38.518Z,97.40
2022-09-11T18:37:07.202Z,97.40
2022-09-11T18:39:35.418Z,97.40
2022-09-11T18:42:06.180Z,97.40
2022-09-11T18:44:34.335Z,97.40
2022-09-11T18:47:03.767Z,97.40
2022-09-11T18:49:32.106Z,97.40
2022-09-11T18:52:00.616Z,97.40
2022-09-11T18:54:29.967Z,97.40
2022-09-11T18:57:00.197Z,97.40
2022-09-11T18:59:31.479Z,97.40
2022-09-11T19:02:00.350Z,97.40
2022-09-11T19:04:29.976Z,97.40
2022-09-11T19:07:00.194Z,97.40
2022-09-11T19:09:29.199Z,97.40
2022-09-11T19:12:00.185Z,97.40
2022-09-11T19:14:30.929Z,97.40
2022-09-11T19:17:08.752Z,97.40
2022-09-11T19:19:39.797Z,97.40
2022-09-11T19:22:08.021Z,97.40
2022-09-11T19:24:36.164Z,97.40
2022-09-11T19:27:07.112Z,97.40
2022-09-11T19:30:19.745Z,97.40
2022-09-11T19:32:50.522Z,97.40
2022-09-11T19:35:20.106Z,97.40
2022-09-11T19:37:48.334Z,97.40
2022-09-11T19:40:46.206Z,97.40
2022-09-11T19:43:26.074Z,97.40
2022-09-11T19:46:03.549Z,97.40
2022-09-11T19:49:17.864Z,97.40
2022-09-11T19:52:10.467Z,97.40
2022-09-11T19:54:41.679Z,97.40
2022-09-11T19:57:16.067Z,97.40
2022-09-11T19:59:52.403Z,97.40
2022-09-11T20:02:28.884Z,97.40
2022-09-11T20:05:21.628Z,97.40
2022-09-11T20:07:52.944Z,97.40
2022-09-11T20:11:10.559Z,97.40
2022-09-11T20:14:02.002Z,97.40
2022-09-11T20:16:30.359Z,97.40
2022-09-11T20:19:09.399Z,97.40
2022-09-11T20:21:37.901Z,97.40
2022-09-11T20:24:12.890Z,97.40
2022-09-11T20:26:41.033Z,97.40
2022-09-11T20:29:13.590Z,97.40
2022-09-11T20:31:47.584Z,97.40
2022-09-11T20:34:16.934Z,97.40
2022-09-11T20:36:45.493Z,97.40
2022-09-11T20:39:17.252Z,97.40
2022-09-11T20:41:45.761Z,97.40
2022-09-11T20:44:13.877Z,97.40
2022-09-11T20:46:43.544Z,97.40
2022-09-11T20:49:12.856Z,97.40
2022-09-11T20:51:41.016Z,97.40
2022-09-11T20:54:09.699Z,97.40
2022-09-11T20:56:39.190Z,97.40
2022-09-11T20:59:07.748Z,97.40
2022-09-11T21:01:36.161Z,97.40
2022-09-11T21:04:05.773Z,97.40
2022-09-11T21:06:36.231Z,97.40
2022-09-11T21:09:07.901Z,97.40
2022-09-11T21:11:39.480Z,97.40
2022-09-11T21:14:08.276Z,97.40
2022-09-11T21:16:36.436Z,97.40
2022-09-11T21:19:06.330Z,97.40
2022-09-11T21:21:37.698Z,97.40
2022-09-11T21:24:08.908Z,97.40
2022-09-11T21:26:38.418Z,97.40
2022-09-11T21:29:09.849Z,97.40
2022-09-11T21:31:38.031Z,97.40
2022-09-11T21:34:06.619Z,97.40
2022-09-11T21:36:36.612Z,97.40
2022-09-11T21:39:05.570Z,97.40
2022-09-11T21:41:33.639Z,97.40
2022-09-11T21:44:03.604Z,97.40
2022-09-11T21:46:37.860Z,97.40
2022-09-11T21:49:06.017Z,97.40
2022-09-11T21:51:34.094Z,97.40
2022-09-11T21:54:02.235Z,97.40
2022-09-11T21:56:32.592Z,97.40
2022-09-11T21:59:02.665Z,97.40
2022-09-11T22:01:31.613Z,97.40
2022-09-11T22:04:01.199Z,97.40
2022-09-11T22:06:29.946Z,97.40
2022-09-11T22:08:58.471Z,97.40
2022-09-11T22:11:26.834Z,97.40
2022-09-11T22:13:55.421Z,97.40
2022-09-11T22:16:25.037Z,97.40
2022-09-11T22:18:55.111Z,97.40
2022-09-11T22:21:23.470Z,97.40
2022-09-11T22:23:51.599Z,97.40
2022-09-11T22:26:23.501Z,97.40
2022-09-11T22:28:52.428Z,97.40
2022-09-11T22:31:23.600Z,97.40
2022-09-11T22:33:55.044Z,97.40
2022-09-11T22:36:25.775Z,97.40
2022-09-11T22:38:54.792Z,97.40
2022-09-11T22:41:23.457Z,97.40
2022-09-11T22:43:51.592Z,97.40
2022-09-11T22:46:21.523Z,97.40
2022-09-11T22:48:49.819Z,97.40
2022-09-11T22:51:19.323Z,97.40
2022-09-11T22:53:47.589Z,97.40
2022-09-11T22:56:16.822Z,97.40
2022-09-11T22:58:45.144Z,97.40
2022-09-11T23:01:21.835Z,97.40
2022-09-11T23:03:52.083Z,97.40
2022-09-11T23:06:40.030Z,97.40
2022-09-11T23:09:11.772Z,97.40
2022-09-11T23:11:40.257Z,97.40
2022-09-11T23:14:13.351Z,97.40
2022-09-11T23:16:43.275Z,97.40
2022-09-11T23:19:14.845Z,97.40
2022-09-11T23:21:44.424Z,97.40
2022-09-11T23:24:15.336Z,97.40
2022-09-11T23:26:45.232Z,97.40
2022-09-11T23:29:13.763Z,97.40
2022-09-11T23:31:44.180Z,97.40
2022-09-11T23:34:17.085Z,97.40
2022-09-11T23:36:47.105Z,97.40
2022-09-11T23:39:15.358Z,97.40
2022-09-11T23:41:43.427Z,97.40
2022-09-11T23:44:11.811Z,97.40
2022-09-11T23:46:39.851Z,97.40
2022-09-11T23:49:08.154Z,97.40
2022-09-11T23:51:36.600Z,97.40
2022-09-11T23:54:06.422Z,97.40
2022-09-11T23:56:34.739Z,97.40
2022-09-11T23:59:04.675Z,97.40
